Terminal Aerodrome Forecast
Issued by NWS Sterling, VA

Current Version | Previous Version | Graphics & Text | Print | Product List | Glossary On
Versions: 1 2 3 4 5 6 7 8 9 10 11 12 13 14 15 16 17 18 19 20 21 22
471
FTUS41 KLWX 121720
TAFDCA
TAF
KDCA 121720Z 1218/1324 29012KT P6SM SCT050 BKN080
     FM122100 30017G34KT P6SM SCT050 BKN070
     FM122300 31019G34KT P6SM FEW060 SCT090
     FM131100 28015G22KT P6SM FEW060 FEW200
     FM132300 23007KT P6SM FEW070 SCT200=

USA.gov is the U.S. government's official web portal to all federal, state and local government web resources and services.